createdAt,value
2018-02-21T00:02:15.526Z,5.06
2018-02-21T00:04:42.964Z,4.96
2018-02-21T00:07:10.502Z,4.89
2018-02-21T00:09:37.929Z,5.20
2018-02-21T00:12:05.700Z,5.26
2018-02-21T00:14:33.152Z,5.29
2018-02-21T00:17:00.640Z,5.45
2018-02-21T00:19:28.216Z,5.43
2018-02-21T00:21:55.664Z,5.30
2018-02-21T00:24:23.191Z,5.27
2018-02-21T00:26:50.705Z,5.35
2018-02-21T00:29:18.137Z,5.50
2018-02-21T00:31:45.614Z,5.56
2018-02-21T00:34:13.057Z,5.27
2018-02-21T00:36:40.564Z,5.13
2018-02-21T00:39:08.094Z,5.14
2018-02-21T00:41:35.521Z,5.06
2018-02-21T00:44:03.739Z,5.15
2018-02-21T00:46:31.423Z,5.31
2018-02-21T00:48:59.179Z,5.24
2018-02-21T00:51:26.717Z,5.27
2018-02-21T00:53:54.593Z,5.22
2018-02-21T00:56:22.053Z,5.16
2018-02-21T00:58:49.577Z,5.25
2018-02-21T01:01:17.009Z,5.25
2018-02-21T01:03:44.477Z,5.02
2018-02-21T01:06:11.911Z,5.06
2018-02-21T01:08:39.366Z,4.98
2018-02-21T01:11:06.906Z,5.21
2018-02-21T01:13:34.386Z,5.30
2018-02-21T01:16:02.874Z,5.16
2018-02-21T01:18:30.321Z,4.98
2018-02-21T01:20:57.780Z,4.86
2018-02-21T01:23:25.225Z,4.99
2018-02-21T01:25:52.687Z,5.00
2018-02-21T01:28:20.120Z,5.02
2018-02-21T01:30:47.584Z,4.82
2018-02-21T01:33:15.015Z,4.80
2018-02-21T01:35:42.512Z,4.83
2018-02-21T01:38:10.028Z,4.98
2018-02-21T01:40:37.454Z,4.97
2018-02-21T01:43:05.033Z,5.10
2018-02-21T01:45:32.946Z,5.27
2018-02-21T01:48:00.402Z,5.09
2018-02-21T01:50:39.550Z,5.16
2018-02-21T01:53:07.000Z,4.84
2018-02-21T01:55:34.551Z,4.81
2018-02-21T01:58:03.176Z,4.91
2018-02-21T02:00:30.710Z,4.96
2018-02-21T02:02:58.485Z,5.18
2018-02-21T02:05:25.944Z,5.18
2018-02-21T02:07:53.417Z,5.22
2018-02-21T02:10:20.893Z,4.91
2018-02-21T02:12:48.328Z,5.01
2018-02-21T02:15:15.789Z,5.13
2018-02-21T02:17:43.341Z,5.11
2018-02-21T02:20:10.882Z,5.28
2018-02-21T02:22:38.334Z,5.20
2018-02-21T02:25:05.807Z,5.16
2018-02-21T02:27:33.252Z,5.05
2018-02-21T02:30:00.826Z,5.03
2018-02-21T02:32:28.266Z,5.16
2018-02-21T02:34:55.960Z,5.08
2018-02-21T02:37:23.405Z,5.21
2018-02-21T02:40:07.560Z,5.15
2018-02-21T02:42:35.128Z,5.21
2018-02-21T02:45:03.190Z,5.22
2018-02-21T02:47:30.685Z,5.17
2018-02-21T02:49:58.282Z,5.07
2018-02-21T02:52:25.990Z,5.12
2018-02-21T02:54:53.612Z,5.01
2018-02-21T02:57:21.106Z,5.02
2018-02-21T02:59:48.626Z,5.12
2018-02-21T03:02:16.137Z,4.99
2018-02-21T03:04:43.745Z,5.00
2018-02-21T03:07:11.440Z,5.09
2018-02-21T03:09:39.177Z,5.11
2018-02-21T03:12:06.619Z,5.24
2018-02-21T03:14:34.071Z,5.09
2018-02-21T03:17:01.497Z,5.01
2018-02-21T03:19:28.989Z,4.88
2018-02-21T03:21:56.430Z,4.96
2018-02-21T03:24:24.231Z,5.02
2018-02-21T03:26:51.658Z,4.91
2018-02-21T03:29:19.113Z,4.84
2018-02-21T03:31:46.632Z,5.00
2018-02-21T03:34:14.092Z,4.91
2018-02-21T03:36:41.590Z,4.61
2018-02-21T03:39:09.173Z,4.64
2018-02-21T03:41:36.627Z,4.68
2018-02-21T03:44:04.065Z,4.63
2018-02-21T03:46:31.783Z,4.69
2018-02-21T03:48:59.218Z,4.72
2018-02-21T03:51:26.708Z,4.49
2018-02-21T03:53:54.136Z,4.48
2018-02-21T03:56:21.586Z,4.61
2018-02-21T03:58:49.073Z,4.53
2018-02-21T04:01:16.728Z,4.26
2018-02-21T04:03:44.418Z,4.42
2018-02-21T04:06:11.891Z,4.55
2018-02-21T04:08:39.457Z,4.58
2018-02-21T04:11:06.908Z,4.61
2018-02-21T04:13:34.389Z,4.60
2018-02-21T04:16:01.865Z,4.75
2018-02-21T04:18:29.548Z,4.83
2018-02-21T04:20:57.225Z,4.66
2018-02-21T04:23:24.676Z,4.74
2018-02-21T04:25:52.149Z,4.65
2018-02-21T04:28:19.572Z,4.64
2018-02-21T04:30:47.041Z,4.87
2018-02-21T04:33:14.553Z,4.92
2018-02-21T04:35:42.141Z,4.95
2018-02-21T04:38:09.812Z,4.78
2018-02-21T04:40:37.301Z,4.79
2018-02-21T04:43:04.796Z,4.92
2018-02-21T04:45:32.359Z,4.93
2018-02-21T04:47:59.781Z,4.64
2018-02-21T04:50:27.474Z,4.73
2018-02-21T04:52:55.008Z,4.79
2018-02-21T04:55:43.561Z,5.08
2018-02-21T04:58:15.525Z,4.75
2018-02-21T05:00:43.032Z,4.68
2018-02-21T05:03:10.581Z,4.73
2018-02-21T05:05:38.269Z,4.67
2018-02-21T05:08:05.829Z,4.26
2018-02-21T05:10:34.019Z,4.26
2018-02-21T05:13:01.685Z,4.30
2018-02-21T05:15:29.157Z,4.68
2018-02-21T05:17:56.606Z,4.45
2018-02-21T05:20:25.173Z,4.43
2018-02-21T05:22:52.646Z,4.70
2018-02-21T05:25:20.082Z,4.38
2018-02-21T05:27:47.504Z,4.38
2018-02-21T05:30:14.952Z,4.49
2018-02-21T05:32:42.388Z,4.70
2018-02-21T05:35:09.832Z,4.61
2018-02-21T05:37:37.254Z,4.57
2018-02-21T05:40:04.698Z,4.51
2018-02-21T05:42:32.141Z,4.45
2018-02-21T05:44:59.638Z,4.38
2018-02-21T05:47:27.064Z,4.02
2018-02-21T05:49:54.506Z,4.28
2018-02-21T05:52:21.939Z,4.05
2018-02-21T05:54:49.475Z,4.28
2018-02-21T05:57:16.959Z,4.08
2018-02-21T05:59:44.577Z,4.18
2018-02-21T06:02:12.085Z,4.17
2018-02-21T06:04:39.549Z,3.99
2018-02-21T06:07:07.180Z,4.13
2018-02-21T06:09:34.616Z,4.15
2018-02-21T06:12:02.098Z,4.06
2018-02-21T06:14:29.638Z,3.94
2018-02-21T06:16:57.214Z,3.76
2018-02-21T06:19:24.791Z,3.99
2018-02-21T06:21:52.302Z,3.96
2018-02-21T06:24:20.897Z,3.94
2018-02-21T06:26:48.393Z,3.93
2018-02-21T06:29:15.980Z,3.86
2018-02-21T06:31:43.413Z,3.87
2018-02-21T06:34:10.985Z,3.89
2018-02-21T06:36:38.465Z,3.93
2018-02-21T06:39:05.942Z,3.99
2018-02-21T06:41:34.324Z,3.92
2018-02-21T06:44:01.829Z,3.82
2018-02-21T06:46:29.675Z,4.01
2018-02-21T06:48:57.169Z,4.02
2018-02-21T06:51:24.607Z,4.00
2018-02-21T06:53:52.498Z,3.78
2018-02-21T06:56:19.971Z,3.83
2018-02-21T06:58:48.025Z,3.75
2018-02-21T07:01:15.511Z,3.66
2018-02-21T07:03:42.945Z,3.87
2018-02-21T07:06:10.394Z,3.71
2018-02-21T07:08:37.858Z,3.82
2018-02-21T07:11:05.546Z,3.92
2018-02-21T07:13:33.218Z,3.98
2018-02-21T07:16:00.838Z,4.11
2018-02-21T07:18:28.274Z,3.91
2018-02-21T07:20:55.829Z,3.91
2018-02-21T07:23:23.282Z,3.88
2018-02-21T07:25:50.757Z,3.83
2018-02-21T07:28:18.445Z,3.84
2018-02-21T07:30:45.967Z,3.96
2018-02-21T07:33:13.486Z,3.78
2018-02-21T07:35:41.010Z,3.92
2018-02-21T07:38:08.471Z,4.08
2018-02-21T07:40:35.933Z,4.17
2018-02-21T07:43:03.577Z,4.24
2018-02-21T07:45:31.001Z,3.98
2018-02-21T07:47:58.589Z,4.09
2018-02-21T07:50:26.244Z,4.30
2018-02-21T07:52:53.731Z,4.40
2018-02-21T07:55:21.381Z,4.40
2018-02-21T07:57:48.890Z,4.30
2018-02-21T08:00:16.330Z,4.28
2018-02-21T08:02:43.901Z,4.44
2018-02-21T08:05:11.554Z,4.42
2018-02-21T08:07:39.006Z,4.59
2018-02-21T08:10:06.506Z,4.64
2018-02-21T08:12:34.791Z,4.59
2018-02-21T08:15:02.233Z,4.67
2018-02-21T08:17:29.762Z,4.56
2018-02-21T08:19:57.330Z,4.65
2018-02-21T08:22:24.902Z,4.74
2018-02-21T08:24:52.532Z,4.79
2018-02-21T08:27:19.990Z,4.70
2018-02-21T08:29:47.436Z,4.66
2018-02-21T08:32:14.890Z,4.82
2018-02-21T08:34:42.365Z,4.73
2018-02-21T08:37:09.821Z,4.97
2018-02-21T08:39:37.324Z,5.03
2018-02-21T08:42:04.930Z,5.04
2018-02-21T08:44:32.387Z,5.13
2018-02-21T08:46:59.842Z,5.02
2018-02-21T08:49:28.180Z,5.35
2018-02-21T08:51:55.633Z,5.39
2018-02-21T08:54:23.057Z,5.38
2018-02-21T08:56:50.521Z,5.31
2018-02-21T08:59:17.978Z,5.45
2018-02-21T09:01:45.435Z,5.64
2018-02-21T09:04:12.889Z,5.47
2018-02-21T09:06:40.628Z,5.80
2018-02-21T09:09:08.089Z,5.81
2018-02-21T09:11:35.607Z,5.87
2018-02-21T09:14:03.074Z,5.95
2018-02-21T09:16:30.546Z,5.79
2018-02-21T09:18:58.180Z,5.85
2018-02-21T09:21:25.638Z,5.79
2018-02-21T09:23:53.106Z,5.82
2018-02-21T09:26:20.551Z,5.87
2018-02-21T09:28:48.073Z,5.99
2018-02-21T09:31:15.501Z,6.13
2018-02-21T09:33:42.952Z,6.15
2018-02-21T09:36:10.445Z,6.27
2018-02-21T09:38:37.933Z,6.48
2018-02-21T09:41:05.431Z,6.46
2018-02-21T09:43:32.860Z,6.66
2018-02-21T09:46:00.324Z,6.53
2018-02-21T09:48:27.811Z,6.54
2018-02-21T09:50:55.260Z,6.54
2018-02-21T09:53:22.760Z,6.75
2018-02-21T09:55:50.208Z,6.92
2018-02-21T09:58:17.647Z,6.88
2018-02-21T10:00:45.113Z,7.15
2018-02-21T10:03:12.597Z,7.20
2018-02-21T10:05:40.058Z,7.24
2018-02-21T10:08:07.489Z,7.36
2018-02-21T10:10:35.326Z,7.40
2018-02-21T10:13:02.792Z,7.76
2018-02-21T10:15:30.241Z,7.82
2018-02-21T10:17:57.725Z,7.96
2018-02-21T10:20:25.184Z,7.73
2018-02-21T10:22:52.654Z,7.74
2018-02-21T10:25:20.129Z,7.88
2018-02-21T10:27:47.586Z,7.85
2018-02-21T10:30:15.033Z,7.97
2018-02-21T10:32:42.598Z,7.90
2018-02-21T10:35:10.039Z,8.04
2018-02-21T10:37:37.518Z,8.43
2018-02-21T10:40:05.490Z,8.60
2018-02-21T10:42:32.930Z,8.58
2018-02-21T10:45:00.401Z,8.33
2018-02-21T10:47:27.991Z,8.44
2018-02-21T10:49:55.444Z,7.84
2018-02-21T10:52:22.948Z,8.17
2018-02-21T10:54:50.421Z,8.24
2018-02-21T10:57:17.872Z,8.47
2018-02-21T10:59:45.774Z,8.43
2018-02-21T11:02:13.267Z,8.62
2018-02-21T11:04:40.769Z,8.49
2018-02-21T11:07:08.212Z,8.47
2018-02-21T11:09:35.685Z,8.57
2018-02-21T11:12:03.225Z,8.42
2018-02-21T11:14:30.668Z,8.34
2018-02-21T11:16:58.125Z,8.48
2018-02-21T11:19:25.574Z,8.53
2018-02-21T11:21:53.027Z,8.61
2018-02-21T11:24:20.697Z,8.77
2018-02-21T11:26:48.225Z,8.80
2018-02-21T11:29:15.655Z,8.85
2018-02-21T11:31:53.324Z,9.14
2018-02-21T11:34:32.251Z,9.13
2018-02-21T11:37:00.205Z,9.17
2018-02-21T11:39:27.691Z,9.36
2018-02-21T11:41:55.135Z,9.79
2018-02-21T11:44:22.570Z,9.94
2018-02-21T11:46:50.042Z,10.11
2018-02-21T11:49:17.485Z,10.31
2018-02-21T11:51:44.947Z,10.54
2018-02-21T11:54:12.640Z,10.22
2018-02-21T11:56:40.136Z,10.33
2018-02-21T11:59:07.637Z,10.68
2018-02-21T12:01:35.843Z,11.08
2018-02-21T12:04:03.293Z,11.07
2018-02-21T12:06:30.771Z,11.35
2018-02-21T12:08:58.328Z,11.35
2018-02-21T12:11:25.919Z,11.34
2018-02-21T12:13:53.610Z,11.22
2018-02-21T12:16:21.094Z,11.35
2018-02-21T12:18:48.525Z,11.49
2018-02-21T12:21:16.041Z,11.90
2018-02-21T12:23:43.787Z,12.12
2018-02-21T12:26:11.379Z,12.13
2018-02-21T12:28:38.847Z,12.28
2018-02-21T12:31:06.327Z,12.74
2018-02-21T12:33:34.089Z,12.99
2018-02-21T12:36:01.617Z,12.90
2018-02-21T12:38:29.095Z,12.76
2018-02-21T12:41:02.187Z,13.35
2018-02-21T12:43:29.669Z,13.57
2018-02-21T12:45:57.408Z,14.03
2018-02-21T12:48:24.894Z,14.43
2018-02-21T12:50:52.377Z,13.93
2018-02-21T12:53:19.829Z,14.12
2018-02-21T12:55:47.301Z,15.16
2018-02-21T12:58:14.770Z,15.28
2018-02-21T13:00:42.236Z,15.51
2018-02-21T13:03:09.672Z,15.56
2018-02-21T13:05:37.222Z,16.27
2018-02-21T13:08:04.675Z,16.00
2018-02-21T13:10:32.149Z,16.86
2018-02-21T13:12:59.633Z,17.48
2018-02-21T13:15:27.315Z,17.30
2018-02-21T13:17:54.769Z,17.23
2018-02-21T13:20:22.231Z,17.54
2018-02-21T13:22:49.684Z,17.29
2018-02-21T13:25:17.212Z,18.51
2018-02-21T13:27:44.848Z,18.67
2018-02-21T13:30:12.351Z,18.98
2018-02-21T13:32:39.795Z,18.91
2018-02-21T13:35:07.278Z,19.07
2018-02-21T13:37:37.649Z,19.09
2018-02-21T13:40:06.274Z,18.81
2018-02-21T13:42:33.711Z,19.20
2018-02-21T13:45:01.234Z,19.11
2018-02-21T13:47:28.852Z,19.50
2018-02-21T13:49:56.361Z,19.98
2018-02-21T13:52:23.878Z,19.83
2018-02-21T13:54:51.321Z,19.29
2018-02-21T13:57:18.823Z,19.34
2018-02-21T13:59:46.291Z,19.33
2018-02-21T14:02:13.774Z,19.96
2018-02-21T14:04:41.353Z,19.85
2018-02-21T14:07:08.865Z,19.81
2018-02-21T14:09:36.437Z,20.08
2018-02-21T14:12:03.894Z,19.98
2018-02-21T14:14:31.898Z,20.64
2018-02-21T14:16:59.557Z,20.12
2018-02-21T14:19:27.004Z,20.02
2018-02-21T14:21:54.453Z,20.09
2018-02-21T14:24:21.910Z,19.91
2018-02-21T14:26:49.518Z,19.96
2018-02-21T14:29:17.047Z,20.27
2018-02-21T14:31:44.636Z,19.46
2018-02-21T14:34:12.227Z,19.36
2018-02-21T14:36:39.941Z,20.21
2018-02-21T14:39:08.767Z,20.18
2018-02-21T14:41:37.292Z,20.05
2018-02-21T14:44:04.783Z,19.83
2018-02-21T14:46:32.271Z,19.45
2018-02-21T14:48:59.780Z,19.11
2018-02-21T14:51:27.935Z,18.82
2018-02-21T14:53:55.421Z,19.49
2018-02-21T14:56:22.885Z,19.88
2018-02-21T14:58:50.527Z,18.48
2018-02-21T15:01:18.072Z,18.60
2018-02-21T15:03:45.570Z,17.83
2018-02-21T15:06:13.071Z,16.88
2018-02-21T15:08:40.616Z,16.10
2018-02-21T15:11:08.092Z,15.44
2018-02-21T15:13:35.592Z,14.62
2018-02-21T15:16:03.574Z,14.37
2018-02-21T15:18:31.017Z,14.08
2018-02-21T15:20:58.465Z,13.73
2018-02-21T15:23:26.091Z,13.10
2018-02-21T15:25:53.573Z,13.04
2018-02-21T15:28:21.085Z,13.10
2018-02-21T15:30:49.681Z,13.13
2018-02-21T15:33:17.169Z,13.09
2018-02-21T15:35:44.705Z,12.65
2018-02-21T15:38:12.257Z,12.53
2018-02-21T15:40:39.711Z,12.25
2018-02-21T15:43:07.175Z,12.02
2018-02-21T15:45:34.685Z,11.82
2018-02-21T15:48:02.189Z,11.75
2018-02-21T15:50:29.887Z,11.68
2018-02-21T15:52:57.361Z,11.89
2018-02-21T15:55:24.811Z,11.51
2018-02-21T15:57:52.265Z,11.31
2018-02-21T16:00:19.899Z,11.25
2018-02-21T16:02:47.393Z,11.19
2018-02-21T16:05:14.871Z,10.62
2018-02-21T16:07:42.516Z,10.70
2018-02-21T16:10:10.010Z,10.33
2018-02-21T16:12:37.483Z,10.44
2018-02-21T16:15:04.937Z,10.57
2018-02-21T16:17:32.386Z,10.72
2018-02-21T16:19:59.862Z,10.54
2018-02-21T16:22:27.368Z,10.40
2018-02-21T16:24:54.842Z,10.13
2018-02-21T16:27:22.311Z,10.30
2018-02-21T16:29:50.782Z,10.15
2018-02-21T16:32:18.291Z,9.87
2018-02-21T16:34:45.755Z,10.14
2018-02-21T16:37:13.182Z,9.91
2018-02-21T16:39:40.642Z,9.94
2018-02-21T16:42:08.156Z,9.76
2018-02-21T16:44:35.609Z,9.63
2018-02-21T16:47:03.077Z,9.58
2018-02-21T16:49:30.546Z,9.33
2018-02-21T16:51:58.021Z,9.28
2018-02-21T16:54:27.197Z,9.08
2018-02-21T16:56:54.662Z,8.67
2018-02-21T16:59:22.236Z,8.79
2018-02-21T17:01:49.725Z,8.88
2018-02-21T17:04:17.170Z,8.79
2018-02-21T17:06:44.612Z,8.63
2018-02-21T17:09:13.113Z,8.50
2018-02-21T17:11:40.587Z,8.63
2018-02-21T17:14:08.136Z,8.66
2018-02-21T17:16:35.584Z,8.49
2018-02-21T17:19:04.440Z,8.35
2018-02-21T17:21:32.150Z,8.35
2018-02-21T17:23:59.592Z,8.39
2018-02-21T17:26:27.050Z,8.18
2018-02-21T17:28:54.507Z,8.44
2018-02-21T17:31:22.042Z,8.51
2018-02-21T17:33:49.492Z,8.58
2018-02-21T17:36:16.946Z,8.08
2018-02-21T17:38:44.433Z,8.23
2018-02-21T17:41:17.412Z,8.18
2018-02-21T17:43:44.873Z,8.04
2018-02-21T17:46:12.349Z,8.36
2018-02-21T17:48:42.629Z,8.10
2018-02-21T17:51:10.110Z,8.21
2018-02-21T17:53:37.579Z,7.84
2018-02-21T17:56:05.010Z,7.88
2018-02-21T17:58:32.466Z,7.64
2018-02-21T18:01:00.177Z,7.68
2018-02-21T18:03:27.814Z,7.41
2018-02-21T18:05:55.275Z,7.59
2018-02-21T18:08:22.746Z,7.57
2018-02-21T18:10:50.323Z,7.36
2018-02-21T18:13:17.825Z,7.65
2018-02-21T18:15:45.298Z,7.61
2018-02-21T18:18:12.750Z,7.43
2018-02-21T18:20:40.216Z,7.53
2018-02-21T18:23:07.695Z,7.51
2018-02-21T18:25:35.189Z,7.71
2018-02-21T18:28:02.656Z,7.15
2018-02-21T18:30:30.195Z,7.43
2018-02-21T18:32:57.656Z,7.52
2018-02-21T18:35:25.231Z,7.47
2018-02-21T18:37:52.763Z,7.15
2018-02-21T18:40:20.266Z,7.18
2018-02-21T18:42:47.716Z,7.16
2018-02-21T18:45:15.175Z,6.97
2018-02-21T18:47:42.801Z,7.31
2018-02-21T18:50:10.293Z,7.25
2018-02-21T18:52:38.066Z,7.15
2018-02-21T18:55:05.606Z,7.27
2018-02-21T18:57:33.577Z,7.34
2018-02-21T19:00:01.034Z,6.96
2018-02-21T19:02:28.792Z,7.09
2018-02-21T19:04:56.285Z,7.13
2018-02-21T19:07:23.885Z,7.11
2018-02-21T19:09:51.461Z,6.94
2018-02-21T19:12:19.097Z,6.69
2018-02-21T19:14:47.042Z,6.64
2018-02-21T19:17:15.429Z,6.38
2018-02-21T19:19:42.881Z,6.51
2018-02-21T19:22:11.280Z,6.76
2018-02-21T19:24:38.743Z,6.60
2018-02-21T19:27:06.181Z,6.21
2018-02-21T19:29:33.758Z,6.62
2018-02-21T19:32:01.237Z,6.62
2018-02-21T19:34:28.698Z,6.82
2018-02-21T19:36:56.153Z,6.24
2018-02-21T19:39:23.615Z,6.00
2018-02-21T19:41:51.122Z,6.49
2018-02-21T19:44:18.578Z,6.50
2018-02-21T19:46:46.034Z,6.39
2018-02-21T19:49:13.490Z,6.36
2018-02-21T19:51:40.924Z,6.33
2018-02-21T19:54:08.610Z,6.06
2018-02-21T19:56:36.065Z,6.05
2018-02-21T19:59:03.513Z,6.02
2018-02-21T20:01:31.004Z,6.37
2018-02-21T20:03:58.456Z,6.13
2018-02-21T20:06:25.913Z,5.84
2018-02-21T20:08:53.350Z,5.78
2018-02-21T20:11:20.855Z,6.26
2018-02-21T20:13:48.298Z,6.08
2018-02-21T20:16:15.784Z,6.43
2018-02-21T20:18:43.224Z,6.27
2018-02-21T20:21:10.689Z,6.28
2018-02-21T20:23:38.165Z,5.98
2018-02-21T20:26:05.613Z,5.80
2018-02-21T20:28:33.094Z,6.15
2018-02-21T20:31:00.559Z,5.99
2018-02-21T20:33:28.042Z,6.09
2018-02-21T20:35:55.730Z,6.19
2018-02-21T20:38:23.403Z,6.38
2018-02-21T20:40:51.074Z,6.19
2018-02-21T20:43:18.571Z,5.88
2018-02-21T20:45:46.073Z,6.30
2018-02-21T20:48:13.679Z,6.17
2018-02-21T20:50:42.094Z,6.11
2018-02-21T20:53:09.588Z,6.41
2018-02-21T20:55:38.219Z,6.48
2018-02-21T20:58:05.678Z,6.31
2018-02-21T21:00:33.810Z,5.98
2018-02-21T21:03:01.353Z,5.66
2018-02-21T21:05:28.994Z,5.98
2018-02-21T21:07:56.490Z,6.13
2018-02-21T21:10:23.929Z,5.82
2018-02-21T21:12:51.373Z,5.94
2018-02-21T21:15:18.860Z,6.08
2018-02-21T21:17:46.608Z,6.02
2018-02-21T21:20:14.186Z,6.07
2018-02-21T21:22:41.645Z,5.83
2018-02-21T21:25:09.081Z,5.89
2018-02-21T21:27:37.434Z,5.99
2018-02-21T21:30:04.882Z,5.75
2018-02-21T21:32:32.340Z,5.56
2018-02-21T21:34:59.785Z,5.07
2018-02-21T21:37:27.290Z,5.25
2018-02-21T21:39:54.745Z,5.54
2018-02-21T21:42:23.189Z,5.45
2018-02-21T21:44:50.646Z,5.52
2018-02-21T21:47:18.210Z,5.34
2018-02-21T21:49:45.671Z,5.64
2018-02-21T21:52:13.279Z,5.35
2018-02-21T21:54:41.556Z,5.67
2018-02-21T21:57:09.118Z,5.80
2018-02-21T21:59:36.814Z,5.54
2018-02-21T22:02:05.268Z,5.62
2018-02-21T22:04:32.703Z,5.37
2018-02-21T22:07:00.535Z,5.24
2018-02-21T22:09:27.982Z,5.48
2018-02-21T22:11:55.437Z,5.45
2018-02-21T22:14:22.940Z,5.23
2018-02-21T22:16:50.393Z,5.71
2018-02-21T22:19:17.861Z,5.27
2018-02-21T22:21:46.427Z,5.26
2018-02-21T22:24:14.043Z,5.21
2018-02-21T22:26:41.559Z,5.03
2018-02-21T22:29:09.220Z,5.38
2018-02-21T22:31:36.968Z,5.36
2018-02-21T22:34:04.505Z,5.37
2018-02-21T22:36:32.020Z,5.16
2018-02-21T22:38:59.473Z,5.19
2018-02-21T22:41:27.038Z,5.22
2018-02-21T22:43:54.523Z,5.16
2018-02-21T22:46:22.069Z,4.92
2018-02-21T22:48:49.533Z,5.20
2018-02-21T22:51:17.182Z,5.21
2018-02-21T22:53:44.638Z,5.14
2018-02-21T22:56:12.101Z,5.09
2018-02-21T22:58:39.544Z,5.02
2018-02-21T23:01:07.004Z,4.91
2018-02-21T23:03:34.433Z,5.05
2018-02-21T23:06:01.881Z,4.99
2018-02-21T23:08:29.324Z,5.09
2018-02-21T23:10:56.927Z,5.20
2018-02-21T23:13:24.450Z,4.98
2018-02-21T23:15:51.921Z,4.67
2018-02-21T23:18:19.367Z,4.58
2018-02-21T23:20:46.815Z,4.59
2018-02-21T23:23:14.266Z,4.86
2018-02-21T23:25:41.793Z,4.84
2018-02-21T23:28:09.250Z,4.90
2018-02-21T23:30:36.709Z,4.66
2018-02-21T23:33:04.185Z,4.80
2018-02-21T23:35:31.634Z,4.71
2018-02-21T23:37:59.168Z,4.74
2018-02-21T23:40:26.610Z,4.67
2018-02-21T23:42:54.061Z,4.72
2018-02-21T23:45:21.730Z,4.82
2018-02-21T23:47:49.191Z,4.65
2018-02-21T23:50:16.642Z,4.75
2018-02-21T23:52:44.153Z,4.59
2018-02-21T23:55:11.689Z,4.36
2018-02-21T23:57:39.147Z,4.46
